首页
METAR-TAF:

METAR-TAF

机场 :

朱拜勒, 沙特阿拉伯

纬度: 27-02-20N, 经度: 49-24-18E, 海拔: 8米

当前天气观测

该预报发布于1小时和16分钟前的15:00 UTC
风速5节,风向
温度 20°C
湿度 73%
气压 1014 hPa
能见度10公里或以上
1500米以下无云,无积雨云

METAR: OEJB 121500Z AUTO 36005KT CAVOK 20/15 Q1014

时间: 19:16 (16:16 UTC)


TAF: 丢失

超过4000个机场的气象观测和天气预报(METAR&TAF报告)。

可查询的气象台以黄色和红色小点在地图上表示。

将鼠标移到小点上方,可查看气象台名称。

然后点击查看天气观测和预报。

如需切换地图:点击带黑十字的绿色按钮放大地图;点击带横线的绿色按钮缩小地图;或者点击绿色箭头查看邻近地区的地图。


METAR-TAF: